Time;durP1;ratioP1;P1;durP2;ratioP2;P2;SDS_P1;SDS_P2;PMS_P1;PMS_P2;Temp;Humidity;BMP_temperature;BMP_pressure;BME280_temperature;BME280_humidity;BME280_pressure;Samples;Min_cycle;Max_cycle;Signal;HPM_P1;HPM_P2
2023/03/10 00:27:27;;;;;;;3.88;3.45;;;4.70;99.90;;;;;;5371915;22;20061;-74
2023/03/10 00:29:52;;;;;;;3.65;3.35;;;4.80;99.90;;;;;;5043666;28;20393;-75
2023/03/10 00:32:18;;;;;;;4.10;3.67;;;5.00;99.90;;;;;;5008790;28;20181;-74
2023/03/10 00:34:44;;;;;;;4.47;3.60;;;5.00;99.90;;;;;;5034540;28;20040;-74
2023/03/10 00:37:10;;;;;;;5.03;3.42;;;5.10;99.90;;;;;;5047473;28;20432;-73
2023/03/10 00:39:35;;;;;;;4.00;3.60;;;5.10;99.90;;;;;;5074375;28;20035;-73
2023/03/10 00:42:01;;;;;;;3.42;3.13;;;5.20;99.90;;;;;;5056539;28;20025;-73
2023/03/10 00:44:27;;;;;;;3.42;3.13;;;5.20;99.90;;;;;;5056548;28;20067;-74
2023/03/10 00:46:53;;;;;;;3.58;3.28;;;5.30;99.90;;;;;;5073705;28;20366;-74
2023/03/10 00:49:19;;;;;;;3.50;3.20;;;5.30;99.90;;;;;;5074031;28;20036;-73
2023/03/10 00:51:45;;;;;;;3.38;3.08;;;5.40;99.90;;;;;;5056607;28;20484;-73
2023/03/10 00:54:11;;;;;;;4.07;3.65;;;5.40;99.90;;;;;;5056162;28;20024;-73
2023/03/10 00:56:37;;;;;;;3.22;2.92;;;5.30;99.90;;;;;;5073496;28;20476;-73
2023/03/10 00:59:03;;;;;;;4.50;3.53;;;5.30;99.90;;;;;;5055991;28;20098;-74
2023/03/10 01:01:34;;;;;;;3.88;3.47;;;5.40;99.90;;;;;;5073906;28;20067;-74
2023/03/10 01:04:13;;;;;;;4.00;3.60;;;5.20;99.90;;;;;;5055931;28;20033;-73
2023/03/10 01:06:39;;;;;;;4.13;3.63;;;5.20;99.90;;;;;;5068791;28;20027;-73
2023/03/10 01:09:05;;;;;;;4.05;3.65;;;5.10;99.90;;;;;;5035719;28;20029;-73
2023/03/10 01:11:32;;;;;;;4.03;3.63;;;5.10;99.90;;;;;;5053597;28;20025;-73
2023/03/10 01:14:00;;;;;;;5.03;4.53;;;5.10;99.90;;;;;;5053737;28;20385;-73
2023/03/10 01:16:27;;;;;;;4.60;4.20;;;5.00;99.90;;;;;;5053436;28;20442;-74
2023/03/10 01:18:53;;;;;;;4.53;3.63;;;4.90;99.90;;;;;;5035821;28;20044;-74
2023/03/10 01:21:22;;;;;;;4.65;4.25;;;4.90;99.90;;;;;;5019319;28;20029;-74
2023/03/10 01:23:48;;;;;;;4.22;3.83;;;5.00;99.90;;;;;;5053609;28;20036;-74
2023/03/10 01:26:14;;;;;;;4.63;4.18;;;5.00;99.90;;;;;;5031641;28;20409;-74
2023/03/10 01:28:40;;;;;;;4.20;3.80;;;5.00;99.90;;;;;;5033548;28;20044;-74
2023/03/10 01:31:06;;;;;;;4.15;3.75;;;5.10;99.90;;;;;;5032182;28;20029;-74
2023/03/10 01:33:38;;;;;;;3.58;3.28;;;5.20;99.90;;;;;;5033477;28;20040;-74
2023/03/10 01:36:19;;;;;;;4.60;4.10;;;5.30;99.90;;;;;;5032279;28;20051;-74
2023/03/10 01:38:45;;;;;;;4.70;4.30;;;5.40;99.90;;;;;;5032164;28;20036;-74
2023/03/10 01:41:11;;;;;;;4.50;4.10;;;5.50;99.90;;;;;;5032269;28;20037;-74
2023/03/10 01:43:39;;;;;;;4.78;4.28;;;5.50;99.90;;;;;;5031891;28;20359;-73
2023/03/10 01:46:26;;;;;;;4.45;4.05;;;5.50;99.90;;;;;;5033138;28;20025;-74
2023/03/10 01:48:53;;;;;;;4.43;4.03;;;5.70;99.90;;;;;;5032040;28;20057;-74
2023/03/10 01:51:20;;;;;;;4.13;3.72;;;5.70;99.90;;;;;;5033390;28;20489;-74
2023/03/10 01:53:46;;;;;;;4.18;3.72;;;5.80;99.90;;;;;;5032850;28;20048;-74
2023/03/10 01:56:13;;;;;;;3.88;3.58;;;5.90;99.90;;;;;;5032907;28;20458;-74
2023/03/10 01:58:42;;;;;;;5.00;4.50;;;5.90;99.90;;;;;;5032394;28;20030;-74
2023/03/10 02:01:10;;;;;;;4.22;3.83;;;5.90;99.90;;;;;;5031881;28;20038;-73
2023/03/10 02:03:42;;;;;;;4.05;3.65;;;5.80;99.90;;;;;;5031698;28;20030;-74
2023/03/10 02:06:13;;;;;;;4.68;4.28;;;5.70;99.90;;;;;;5042756;28;20025;-74
2023/03/10 02:08:52;;;;;;;4.45;4.05;;;5.60;99.90;;;;;;5052777;28;20040;-74
2023/03/10 02:11:19;;;;;;;5.10;4.60;;;5.50;99.90;;;;;;5053150;28;20021;-74
2023/03/10 02:13:44;;;;;;;4.68;4.28;;;5.50;99.90;;;;;;5052959;28;20036;-74
2023/03/10 02:16:11;;;;;;;5.45;4.90;;;5.40;99.90;;;;;;5051775;28;20033;-74
2023/03/10 02:18:36;;;;;;;4.97;4.47;;;5.40;99.90;;;;;;5051760;28;20037;-74
2023/03/10 02:21:41;;;;;;;5.45;4.85;;;5.30;99.90;;;;;;5051383;28;20166;-74
2023/03/10 02:24:09;;;;;;;5.40;4.90;;;5.30;99.90;;;;;;4971917;28;20062;-74
2023/03/10 02:26:48;;;;;;;5.57;5.07;;;5.30;99.90;;;;;;5045848;28;20048;-74
2023/03/10 02:29:31;;;;;;;5.90;5.13;;;5.20;99.90;;;;;;5072788;28;20031;-74
2023/03/10 02:31:58;;;;;;;6.50;4.85;;;5.20;99.90;;;;;;5062636;28;20088;-74
2023/03/10 02:34:25;;;;;;;5.82;5.10;;;5.20;99.90;;;;;;5042524;28;20034;-74
2023/03/10 02:36:51;;;;;;;5.25;4.75;;;5.30;99.90;;;;;;5032473;28;20084;-74
2023/03/10 02:39:17;;;;;;;5.55;5.05;;;5.30;99.90;;;;;;5033254;28;20485;-73
2023/03/10 02:41:44;;;;;;;5.22;4.72;;;5.40;99.90;;;;;;5032627;28;20524;-73
2023/03/10 02:44:13;;;;;;;5.07;4.57;;;5.40;99.90;;;;;;5015176;28;20044;-73
2023/03/10 02:46:39;;;;;;;5.45;4.93;;;5.60;99.90;;;;;;5031131;28;20052;-73
2023/03/10 02:49:09;;;;;;;5.13;4.65;;;5.70;99.90;;;;;;5032717;28;20053;-73
2023/03/10 02:51:41;;;;;;;5.10;4.60;;;5.70;99.90;;;;;;5032756;28;20381;-73
2023/03/10 02:54:08;;;;;;;5.97;5.37;;;5.70;99.90;;;;;;5032858;28;20030;-73
2023/03/10 02:56:34;;;;;;;5.65;5.15;;;5.60;99.90;;;;;;5032312;28;20033;-74
2023/03/10 02:59:01;;;;;;;6.13;5.53;;;5.60;99.90;;;;;;5032494;28;20034;-74
2023/03/10 03:01:29;;;;;;;6.13;5.47;;;5.60;99.90;;;;;;5032638;28;20025;-74
2023/03/10 03:03:55;;;;;;;5.85;5.25;;;5.50;99.90;;;;;;4998708;28;20095;-74
2023/03/10 03:06:21;;;;;;;6.35;5.75;;;5.50;99.90;;;;;;5032411;28;20075;-74
2023/03/10 03:08:47;;;;;;;5.95;5.38;;;5.50;99.90;;;;;;4998517;28;20035;-74
2023/03/10 03:11:13;;;;;;;6.47;5.78;;;5.50;99.90;;;;;;5035847;28;20038;-74
2023/03/10 03:13:39;;;;;;;6.65;5.63;;;5.50;99.90;;;;;;5035999;28;20031;-74
2023/03/10 03:16:06;;;;;;;5.70;5.20;;;5.60;99.90;;;;;;5018323;28;20033;-73
2023/03/10 03:18:32;;;;;;;5.90;5.30;;;5.60;99.90;;;;;;5034718;28;20069;-73
2023/03/10 03:20:58;;;;;;;5.60;5.10;;;5.70;99.90;;;;;;5018143;28;20030;-73
2023/03/10 03:23:23;;;;;;;6.38;5.78;;;5.70;99.90;;;;;;5034393;28;20037;-73
2023/03/10 03:25:49;;;;;;;5.63;5.03;;;5.80;99.90;;;;;;5035944;28;20059;-73
2023/03/10 03:28:14;;;;;;;5.65;5.13;;;5.80;99.90;;;;;;5036071;28;20501;-73
2023/03/10 03:30:42;;;;;;;6.15;5.03;;;5.80;99.90;;;;;;5001710;28;20104;-73
2023/03/10 03:33:08;;;;;;;5.22;4.72;;;5.70;99.90;;;;;;5036098;28;20035;-73
2023/03/10 03:35:36;;;;;;;5.30;4.80;;;5.80;99.90;;;;;;5035680;28;20033;-73
2023/03/10 03:38:02;;;;;;;6.25;5.63;;;5.70;99.90;;;;;;5017960;28;20033;-73
2023/03/10 03:40:32;;;;;;;5.88;5.30;;;5.60;99.90;;;;;;5035731;28;20045;-74
2023/03/10 03:42:58;;;;;;;5.93;5.32;;;5.60;99.90;;;;;;5035464;28;20474;-74
2023/03/10 03:45:29;;;;;;;6.35;5.75;;;5.60;99.90;;;;;;5035353;28;20079;-73
2023/03/10 03:47:55;;;;;;;7.30;6.03;;;5.60;99.90;;;;;;5035633;28;20113;-74
2023/03/10 03:50:22;;;;;;;5.75;5.25;;;5.60;99.90;;;;;;5035641;28;20034;-74
2023/03/10 03:52:48;;;;;;;6.40;5.68;;;5.60;99.90;;;;;;5035149;28;20116;-73
2023/03/10 03:55:16;;;;;;;7.05;5.88;;;5.60;99.90;;;;;;5017681;28;20063;-73
2023/03/10 03:57:43;;;;;;;6.60;5.93;;;5.50;99.90;;;;;;5034585;28;20036;-73
2023/03/10 04:00:13;;;;;;;6.68;5.85;;;5.50;99.90;;;;;;5035229;28;20069;-73
2023/03/10 04:02:39;;;;;;;6.38;5.78;;;5.60;99.90;;;;;;5035013;28;20041;-74
2023/03/10 04:05:05;;;;;;;6.43;5.22;;;5.60;99.90;;;;;;5035131;28;20029;-74
2023/03/10 04:07:31;;;;;;;5.88;5.28;;;5.60;99.90;;;;;;5017481;28;20112;-74
2023/03/10 04:09:57;;;;;;;5.93;5.13;;;5.40;99.90;;;;;;5034898;28;20502;-73
2023/03/10 04:12:24;;;;;;;5.25;4.75;;;5.30;99.90;;;;;;5017603;28;20084;-73
2023/03/10 04:14:50;;;;;;;5.97;5.07;;;5.30;99.90;;;;;;5017506;28;20064;-74
2023/03/10 04:17:16;;;;;;;5.55;4.78;;;5.30;99.90;;;;;;5034668;28;20106;-73
2023/03/10 04:19:41;;;;;;;7.15;5.68;;;5.50;99.90;;;;;;5035232;28;20033;-73
2023/03/10 04:22:07;;;;;;;6.13;5.05;;;5.40;99.90;;;;;;5034366;28;20108;-73
2023/03/10 04:24:33;;;;;;;5.60;4.80;;;5.40;99.90;;;;;;5017286;28;20041;-73
2023/03/10 04:26:58;;;;;;;5.70;5.10;;;5.50;99.90;;;;;;5013411;28;20054;-73
2023/03/10 04:29:26;;;;;;;5.88;4.82;;;5.60;99.90;;;;;;5015328;28;20033;-74
2023/03/10 04:31:51;;;;;;;6.72;5.18;;;5.60;99.90;;;;;;4998280;28;20049;-73
2023/03/10 04:34:17;;;;;;;6.05;4.85;;;5.60;99.90;;;;;;5015257;28;20037;-73
2023/03/10 04:36:43;;;;;;;5.82;4.88;;;5.40;99.90;;;;;;5013760;28;20565;-73
2023/03/10 04:39:09;;;;;;;7.15;5.07;;;5.20;99.90;;;;;;5013350;28;20371;-73
2023/03/10 04:41:35;;;;;;;6.28;5.00;;;5.20;99.90;;;;;;5013978;28;20026;-73
2023/03/10 04:44:02;;;;;;;7.28;5.28;;;5.10;99.90;;;;;;5030504;28;20390;-73
2023/03/10 04:46:27;;;;;;;7.45;5.25;;;5.10;99.90;;;;;;5014960;28;20025;-74
2023/03/10 04:48:54;;;;;;;9.00;5.53;;;5.10;99.90;;;;;;5015051;28;20044;-74
2023/03/10 04:51:20;;;;;;;8.57;5.25;;;4.90;99.90;;;;;;4997260;28;20479;-74
2023/03/10 04:53:46;;;;;;;8.05;5.03;;;5.00;99.90;;;;;;5014481;28;20037;-74
2023/03/10 04:56:14;;;;;;;7.30;5.28;;;4.90;99.90;;;;;;4996895;28;20033;-74
2023/03/10 04:58:40;;;;;;;7.55;5.03;;;4.80;99.90;;;;;;5014565;28;20034;-74
2023/03/10 05:01:10;;;;;;;9.45;5.35;;;4.70;99.90;;;;;;5013256;28;20486;-74
2023/03/10 05:03:36;;;;;;;6.22;4.70;;;4.70;99.90;;;;;;5013458;28;20379;-74
2023/03/10 05:06:02;;;;;;;5.15;3.95;;;4.90;99.90;;;;;;5013326;28;20026;-74
2023/03/10 05:08:28;;;;;;;4.97;3.92;;;4.90;99.90;;;;;;5013156;28;20474;-74
2023/03/10 05:10:53;;;;;;;4.20;3.22;;;5.00;99.90;;;;;;5014337;28;20038;-75
2023/03/10 05:13:19;;;;;;;3.97;3.03;;;5.00;99.90;;;;;;5029883;28;20030;-74
2023/03/10 05:15:45;;;;;;;3.67;3.08;;;5.00;99.90;;;;;;5013211;28;20040;-74
2023/03/10 05:18:12;;;;;;;3.38;2.90;;;5.00;99.90;;;;;;5029163;28;20045;-74
2023/03/10 05:20:38;;;;;;;2.75;2.45;;;5.00;99.90;;;;;;5014490;28;20032;-74
2023/03/10 05:23:04;;;;;;;3.08;2.55;;;5.00;99.90;;;;;;5014348;28;20037;-74
2023/03/10 05:25:30;;;;;;;2.42;2.20;;;5.00;99.90;;;;;;5012980;28;20105;-74
2023/03/10 05:27:55;;;;;;;2.38;2.17;;;5.10;99.90;;;;;;5029952;28;20041;-74
2023/03/10 05:30:21;;;;;;;2.30;1.85;;;5.20;99.90;;;;;;5033776;28;20029;-74
2023/03/10 05:32:47;;;;;;;3.05;2.08;;;5.20;99.90;;;;;;4999777;28;20103;-74
2023/03/10 05:35:13;;;;;;;2.42;1.90;;;5.20;99.90;;;;;;5034181;28;20124;-74
2023/03/10 05:37:41;;;;;;;2.20;1.85;;;5.20;99.90;;;;;;5033460;28;20041;-74
2023/03/10 05:40:09;;;;;;;2.05;1.75;;;5.30;99.90;;;;;;5033661;28;20116;-73
2023/03/10 05:42:34;;;;;;;3.50;2.03;;;5.20;99.90;;;;;;5016356;28;20025;-74
2023/03/10 05:45:00;;;;;;;3.35;2.00;;;5.20;99.90;;;;;;5033494;28;20056;-74
2023/03/10 05:47:26;;;;;;;2.00;1.55;;;5.30;99.90;;;;;;5015875;28;20037;-73
2023/03/10 05:49:51;;;;;;;2.33;1.95;;;5.40;99.90;;;;;;4999714;28;20493;-75
2023/03/10 05:52:17;;;;;;;2.95;2.13;;;5.30;99.90;;;;;;5033367;28;20360;-75
2023/03/10 05:54:43;;;;;;;2.55;1.80;;;5.30;99.90;;;;;;5015800;28;20052;-74
2023/03/10 05:57:08;;;;;;;2.08;1.60;;;5.30;99.90;;;;;;4982879;28;20029;-74
2023/03/10 05:59:34;;;;;;;3.05;1.73;;;5.40;99.90;;;;;;5015894;28;20033;-74
2023/03/10 06:02:00;;;;;;;3.35;1.98;;;5.50;99.90;;;;;;5032039;28;20029;-75
2023/03/10 06:04:32;;;;;;;2.55;1.67;;;5.40;99.90;;;;;;5015599;28;20068;-75
2023/03/10 06:07:01;;;;;;;2.85;1.70;;;5.20;99.90;;;;;;5000014;28;20072;-74
2023/03/10 06:09:29;;;;;;;1.70;1.33;;;5.30;99.90;;;;;;5016304;28;20029;-75
2023/03/10 06:11:55;;;;;;;2.45;1.70;;;5.20;99.90;;;;;;5015721;28;20471;-75
2023/03/10 06:14:21;;;;;;;4.18;1.55;;;5.20;99.90;;;;;;5033340;28;20046;-76
2023/03/10 06:16:50;;;;;;;1.98;1.50;;;5.20;99.90;;;;;;5015294;28;20030;-73
2023/03/10 06:19:19;;;;;;;2.90;1.40;;;5.20;99.90;;;;;;5032967;28;20021;-74
2023/03/10 06:21:45;;;;;;;2.60;1.25;;;5.00;99.90;;;;;;5033075;28;20038;-73
2023/03/10 06:24:11;;;;;;;1.90;1.50;;;5.10;99.90;;;;;;5015602;28;20383;-72
2023/03/10 06:26:37;;;;;;;2.30;1.10;;;5.20;99.90;;;;;;5032572;28;20128;-72
2023/03/10 06:29:04;;;;;;;2.35;1.77;;;5.40;99.90;;;;;;5033048;28;20436;-72
2023/03/10 06:31:29;;;;;;;2.55;2.00;;;5.50;99.90;;;;;;5015513;28;20427;-72
2023/03/10 06:33:55;;;;;;;3.92;2.10;;;5.20;99.90;;;;;;5033193;28;20033;-72
2023/03/10 06:36:22;;;;;;;2.75;2.30;;;4.90;99.90;;;;;;5032824;28;20033;-72
2023/03/10 06:38:48;;;;;;;2.60;2.28;;;4.70;99.90;;;;;;5032398;28;20121;-72
2023/03/10 06:41:15;;;;;;;3.03;2.17;;;4.60;99.90;;;;;;5032814;28;20071;-72
2023/03/10 06:43:41;;;;;;;3.60;2.42;;;4.50;99.90;;;;;;5031812;28;20034;-72
2023/03/10 06:46:09;;;;;;;2.80;2.35;;;4.50;99.90;;;;;;5036152;28;20488;-72
2023/03/10 06:48:37;;;;;;;3.58;2.80;;;4.50;99.90;;;;;;5036601;28;20088;-73
2023/03/10 06:51:08;;;;;;;2.92;2.20;;;4.60;99.90;;;;;;5036686;28;20025;-75
2023/03/10 06:53:34;;;;;;;2.90;2.22;;;4.70;99.90;;;;;;5032152;28;20033;-80
2023/03/10 06:56:05;;;;;;;3.33;2.67;;;4.80;99.90;;;;;;5046781;28;20029;-78
2023/03/10 06:58:33;;;;;;;2.53;2.30;;;4.90;99.90;;;;;;5054858;28;20032;-77
2023/03/10 07:00:58;;;;;;;3.30;2.25;;;5.00;99.90;;;;;;5055333;28;20128;-76
2023/03/10 07:03:27;;;;;;;2.78;2.13;;;4.90;99.90;;;;;;5056717;28;20560;-78
2023/03/10 07:05:57;;;;;;;2.67;2.38;;;4.90;99.90;;;;;;5056418;28;20060;-79
2023/03/10 07:08:22;;;;;;;3.42;2.40;;;4.90;99.90;;;;;;5038415;28;20021;-79
2023/03/10 07:10:48;;;;;;;3.35;2.45;;;4.80;99.90;;;;;;5055051;28;20032;-77
2023/03/10 07:13:16;;;;;;;3.40;2.65;;;4.80;99.90;;;;;;5056335;28;20171;-77
2023/03/10 07:15:42;;;;;;;2.70;2.40;;;4.70;99.90;;;;;;5038443;28;20036;-77
2023/03/10 07:18:08;;;;;;;3.25;2.65;;;4.60;99.90;;;;;;5055935;28;20056;-78
2023/03/10 07:20:34;;;;;;;3.42;2.83;;;4.50;99.90;;;;;;5038239;28;20037;-77
2023/03/10 07:22:59;;;;;;;3.75;2.95;;;4.50;99.90;;;;;;5055915;28;20095;-76
2023/03/10 07:25:26;;;;;;;5.93;3.17;;;4.40;99.90;;;;;;5055892;28;20025;-76
2023/03/10 07:27:52;;;;;;;3.75;2.80;;;4.40;99.90;;;;;;5034086;28;20148;-76
2023/03/10 07:30:17;;;;;;;2.97;2.53;;;4.40;99.90;;;;;;5034814;28;20196;-77
2023/03/10 07:32:43;;;;;;;3.10;2.70;;;4.50;99.90;;;;;;5035973;28;20040;-76
2023/03/10 07:35:09;;;;;;;5.80;4.00;;;4.60;99.90;;;;;;5036476;28;20060;-75
2023/03/10 07:37:39;;;;;;;2.78;2.58;;;4.80;99.90;;;;;;5034341;28;20440;-76
2023/03/10 07:40:08;;;;;;;2.65;2.38;;;4.80;99.90;;;;;;5034687;28;20107;-78
2023/03/10 07:42:34;;;;;;;3.20;2.85;;;4.90;99.90;;;;;;5036087;28;20482;-76
2023/03/10 07:45:00;;;;;;;2.97;2.67;;;4.90;99.90;;;;;;5035913;28;20056;-77
2023/03/10 07:47:25;;;;;;;3.70;2.50;;;4.80;99.90;;;;;;5034644;28;20067;-78
2023/03/10 07:49:51;;;;;;;3.65;2.88;;;4.80;99.90;;;;;;5035664;28;20104;-77
2023/03/10 07:52:18;;;;;;;3.28;2.70;;;4.90;99.90;;;;;;5035379;28;20057;-77
2023/03/10 07:54:44;;;;;;;3.15;2.75;;;5.00;99.90;;;;;;5035525;28;20021;-77
2023/03/10 07:57:11;;;;;;;3.67;2.95;;;5.10;99.90;;;;;;5032627;28;20083;-78
2023/03/10 07:59:37;;;;;;;5.32;3.17;;;5.10;99.90;;;;;;5034038;28;20076;-77
2023/03/10 08:02:03;;;;;;;3.95;3.03;;;5.20;99.90;;;;;;5032751;28;20034;-77
2023/03/10 08:04:29;;;;;;;4.32;2.60;;;5.10;99.90;;;;;;5035341;28;20026;-78
2023/03/10 08:06:54;;;;;;;4.03;2.95;;;5.00;99.90;;;;;;5035326;28;20036;-78
2023/03/10 08:09:20;;;;;;;2.97;2.55;;;5.10;99.90;;;;;;5019136;28;20099;-77
2023/03/10 08:11:45;;;;;;;3.80;3.03;;;5.20;99.90;;;;;;4998122;28;20037;-78
2023/03/10 08:14:11;;;;;;;5.38;3.10;;;5.20;99.90;;;;;;5015196;28;20034;-79
2023/03/10 08:16:37;;;;;;;3.88;3.35;;;5.20;99.90;;;;;;5014321;28;20026;-78
2023/03/10 08:19:03;;;;;;;3.88;3.15;;;5.20;99.90;;;;;;5015297;28;20040;-79
2023/03/10 08:21:29;;;;;;;4.25;2.85;;;5.30;99.90;;;;;;5028882;28;20034;-79
2023/03/10 08:23:54;;;;;;;3.13;2.75;;;5.50;99.90;;;;;;5034098;28;20030;-80
2023/03/10 08:26:20;;;;;;;3.90;2.35;;;5.70;99.90;;;;;;5037283;28;20179;-79
2023/03/10 08:28:51;;;;;;;6.80;2.80;;;5.70;99.90;;;;;;5055307;28;20087;-79
2023/03/10 08:31:18;;;;;;;4.00;3.25;;;5.60;99.90;;;;;;5042003;28;20490;-78
2023/03/10 08:33:45;;;;;;;4.28;3.15;;;5.50;99.90;;;;;;5015746;28;20088;-78
2023/03/10 08:36:16;;;;;;;3.00;2.50;;;5.30;99.90;;;;;;5016776;28;20026;-79
2023/03/10 08:38:45;;;;;;;3.08;2.50;;;5.40;99.90;;;;;;5034570;28;20481;-79
2023/03/10 08:41:15;;;;;;;2.60;2.20;;;5.60;99.90;;;;;;5017014;28;20037;-79
2023/03/10 08:43:42;;;;;;;3.85;2.33;;;5.70;99.90;;;;;;5033981;28;20037;-79
2023/03/10 08:46:08;;;;;;;2.72;2.30;;;5.80;99.90;;;;;;5034546;28;20033;-77
2023/03/10 08:48:34;;;;;;;2.22;1.88;;;5.80;99.90;;;;;;5016558;28;20061;-77
2023/03/10 08:51:00;;;;;;;2.25;1.90;;;5.90;99.90;;;;;;5033743;28;20068;-80
2023/03/10 08:53:26;;;;;;;4.75;2.35;;;5.90;99.90;;;;;;5016622;28;20036;-79
2023/03/10 08:55:51;;;;;;;2.50;1.83;;;5.90;99.90;;;;;;5000527;28;20042;-76
2023/03/10 08:58:17;;;;;;;3.08;1.30;;;5.80;99.90;;;;;;5032313;28;20052;-77
2023/03/10 09:00:43;;;;;;;3.40;2.33;;;5.90;99.90;;;;;;5019648;28;20037;-77
2023/03/10 09:03:09;;;;;;;2.85;1.73;;;6.00;99.90;;;;;;5054082;28;20025;-76
2023/03/10 09:05:36;;;;;;;3.83;2.45;;;6.00;99.90;;;;;;5049856;28;20100;-79
2023/03/10 09:08:05;;;;;;;3.00;1.98;;;6.00;99.90;;;;;;5035888;28;20461;-79
2023/03/10 09:10:30;;;;;;;3.30;2.20;;;6.10;99.90;;;;;;5054180;28;20122;-79
2023/03/10 09:12:56;;;;;;;4.25;1.98;;;6.10;99.90;;;;;;5019997;28;20025;-78
2023/03/10 09:15:22;;;;;;;2.25;1.88;;;6.10;99.90;;;;;;5019717;28;20040;-78
2023/03/10 09:17:47;;;;;;;3.22;1.60;;;6.10;99.90;;;;;;5053653;28;20037;-77
2023/03/10 09:20:20;;;;;;;3.90;2.13;;;6.10;99.90;;;;;;5019793;28;20120;-78
2023/03/10 09:22:45;;;;;;;4.43;1.98;;;6.10;99.90;;;;;;5053705;28;20025;-78
2023/03/10 09:25:11;;;;;;;5.72;2.20;;;6.00;99.90;;;;;;5036029;28;20047;-78
2023/03/10 09:27:37;;;;;;;2.63;2.15;;;6.00;99.90;;;;;;5032080;28;20057;-78
2023/03/10 09:30:03;;;;;;;3.50;1.80;;;6.10;99.90;;;;;;5032697;28;20048;-78
2023/03/10 09:32:28;;;;;;;3.42;2.20;;;6.20;99.90;;;;;;5028284;28;20040;-77
2023/03/10 09:34:54;;;;;;;2.50;2.00;;;6.20;99.90;;;;;;5031345;28;20029;-79
2023/03/10 09:37:19;;;;;;;3.00;2.00;;;6.10;99.90;;;;;;5033148;28;20034;-77
2023/03/10 09:39:46;;;;;;;2.97;2.50;;;6.10;99.90;;;;;;5033843;28;20029;-78
2023/03/10 09:42:23;;;;;;;3.60;2.30;;;6.10;99.90;;;;;;5015025;28;20022;-77
2023/03/10 09:44:55;;;;;;;2.85;2.10;;;6.10;99.90;;;;;;5029873;28;20030;-77
2023/03/10 09:47:39;;;;;;;2.60;1.90;;;6.20;99.90;;;;;;5032592;28;20040;-78
2023/03/10 09:50:29;;;;;;;2.65;1.55;;;6.20;99.90;;;;;;5032670;28;20034;-78
2023/03/10 09:53:12;;;;;;;2.88;1.85;;;6.10;99.90;;;;;;5030306;28;20037;-77
2023/03/10 09:55:41;;;;;;;4.03;2.47;;;6.20;99.90;;;;;;5030842;28;20033;-77
2023/03/10 09:58:14;;;;;;;3.80;1.95;;;6.10;99.90;;;;;;5031531;28;20030;-78
2023/03/10 10:00:42;;;;;;;2.90;1.73;;;6.10;99.90;;;;;;5031945;28;20061;-78
2023/03/10 10:03:17;;;;;;;2.80;1.60;;;6.10;99.90;;;;;;5032129;28;20316;-77
2023/03/10 10:05:44;;;;;;;2.50;1.65;;;6.10;99.90;;;;;;5030256;28;20018;-77
2023/03/10 10:08:26;;;;;;;3.53;1.77;;;6.00;99.90;;;;;;5030715;28;20429;-77
2023/03/10 10:10:55;;;;;;;2.78;2.10;;;6.00;99.90;;;;;;5030640;28;20068;-77
2023/03/10 10:13:24;;;;;;;2.42;1.90;;;6.00;99.90;;;;;;5031922;28;20463;-77
2023/03/10 10:16:15;;;;;;;3.72;2.08;;;5.90;99.90;;;;;;5026490;28;20029;-77
2023/03/10 10:18:46;;;;;;;2.03;1.42;;;6.00;99.90;;;;;;5011924;28;20079;-78
2023/03/10 10:21:18;;;;;;;1.75;1.52;;;6.00;99.90;;;;;;5048321;28;20470;-77
2023/03/10 10:23:48;;;;;;;2.67;1.77;;;6.00;99.90;;;;;;5034578;28;20396;-76
2023/03/10 10:26:15;;;;;;;2.90;1.70;;;6.00;99.90;;;;;;5037241;28;20037;-76
2023/03/10 10:28:43;;;;;;;2.20;1.70;;;6.00;99.90;;;;;;5055779;28;20393;-77
2023/03/10 10:31:22;;;;;;;2.47;1.30;;;6.00;99.90;;;;;;5034463;28;20136;-78
2023/03/10 10:33:57;;;;;;;3.78;1.80;;;6.00;99.90;;;;;;5055714;28;20116;-77
2023/03/10 10:36:30;;;;;;;3.58;2.10;;;6.10;99.90;;;;;;5056876;28;20469;-78
2023/03/10 10:38:56;;;;;;;;;;;6.10;99.90;;;;;;5057459;28;20039;-76
2023/03/10 10:41:31;;;;;;;2.13;1.77;;;6.00;99.90;;;;;;5055490;28;19909;-77
2023/03/10 10:44:05;;;;;;;4.22;1.83;;;6.00;99.90;;;;;;5049761;28;20028;-79
2023/03/10 10:46:31;;;;;;;3.03;1.73;;;6.00;99.90;;;;;;5055811;28;20137;-76
2023/03/10 10:49:30;;;;;;;3.20;1.65;;;6.00;99.90;;;;;;5037425;28;20091;-78
2023/03/10 10:52:00;;;;;;;2.33;1.70;;;5.90;99.90;;;;;;5025855;28;20039;-80
2023/03/10 10:54:31;;;;;;;1.48;1.38;;;5.60;99.90;;;;;;5054709;28;20029;-77
2023/03/10 10:56:58;;;;;;;1.67;1.58;;;5.50;99.90;;;;;;5054925;28;20029;-79
2023/03/10 10:59:42;;;;;;;2.10;1.95;;;5.60;99.90;;;;;;5055377;28;20075;-76
2023/03/10 11:02:32;;;;;;;2.00;1.80;;;5.70;99.90;;;;;;5036916;28;20350;-79
2023/03/10 11:05:18;;;;;;;2.00;1.70;;;5.70;99.90;;;;;;5046766;28;20041;-76
2023/03/10 11:07:44;;;;;;;4.20;2.40;;;5.80;99.90;;;;;;5054819;28;20051;-77
2023/03/10 11:10:22;;;;;;;2.28;2.08;;;5.70;99.90;;;;;;5037059;28;20033;-78
2023/03/10 11:13:14;;;;;;;6.00;1.90;;;5.50;99.90;;;;;;5036290;28;20445;-77
2023/03/10 11:16:18;;;;;;;2.80;2.28;;;5.40;99.90;;;;;;5054682;28;20044;-77
2023/03/10 11:18:57;;;;;;;3.42;2.38;;;5.40;99.90;;;;;;5022981;28;20040;-76
2023/03/10 11:21:28;;;;;;;3.42;2.30;;;5.20;99.90;;;;;;5036265;28;20393;-76
2023/03/10 11:24:12;;;;;;;3.30;2.13;;;5.20;99.90;;;;;;5054210;28;20368;-77
2023/03/10 11:26:53;;;;;;;3.60;2.53;;;5.40;99.90;;;;;;5052790;28;20086;-77
2023/03/10 11:29:42;;;;;;;3.63;2.90;;;5.50;99.90;;;;;;5054223;28;20040;-77
2023/03/10 11:32:08;;;;;;;3.17;2.83;;;5.30;99.90;;;;;;5014619;28;20405;-77
2023/03/10 11:34:37;;;;;;;4.25;3.50;;;5.20;99.90;;;;;;5054229;28;20055;-78
2023/03/10 11:37:15;;;;;;;5.10;3.33;;;5.20;99.90;;;;;;5036434;28;20029;-76
2023/03/10 11:40:11;;;;;;;4.05;2.95;;;5.10;99.90;;;;;;5055183;28;20132;-76
2023/03/10 11:42:48;;;;;;;2.90;2.60;;;5.20;99.90;;;;;;5037503;28;20384;-75
2023/03/10 11:45:36;;;;;;;3.45;2.80;;;5.30;99.90;;;;;;5055481;28;20017;-77
2023/03/10 11:48:01;;;;;;;6.60;2.97;;;5.50;99.90;;;;;;5038118;28;20481;-76
2023/03/10 11:50:59;;;;;;;3.40;2.78;;;5.60;99.90;;;;;;5055661;28;20104;-77
2023/03/10 11:53:52;;;;;;;3.88;2.97;;;5.70;99.90;;;;;;5055515;28;20492;-78
2023/03/10 11:56:22;;;;;;;3.83;2.08;;;5.90;99.90;;;;;;5036154;28;20030;-76
2023/03/10 11:58:51;;;;;;;2.78;2.28;;;5.80;99.90;;;;;;5017358;28;20445;-77
2023/03/10 12:01:23;;;;;;;1.88;1.63;;;5.60;99.90;;;;;;5035431;28;20425;-76
2023/03/10 12:04:11;;;;;;;3.08;2.28;;;5.30;99.90;;;;;;5017725;28;20036;-76
2023/03/10 12:07:06;;;;;;;3.33;2.22;;;5.10;99.90;;;;;;5036801;28;20034;-76
2023/03/10 12:09:41;;;;;;;3.13;2.42;;;5.00;99.90;;;;;;5035477;28;20044;-75
2023/03/10 12:12:13;;;;;;;2.70;2.45;;;4.80;99.90;;;;;;5035864;28;20159;-76
2023/03/10 12:14:40;;;;;;;2.88;2.03;;;4.80;99.90;;;;;;5035928;28;20032;-77
2023/03/10 12:17:10;;;;;;;4.15;2.30;;;4.90;99.90;;;;;;5053724;28;20477;-76
2023/03/10 12:20:14;;;;;;;3.22;1.77;;;5.00;99.90;;;;;;5035585;28;20029;-77
2023/03/10 12:22:53;;;;;;;3.63;1.80;;;5.10;99.90;;;;;;5053472;28;20098;-77
2023/03/10 12:25:28;;;;;;;2.33;1.83;;;5.10;99.90;;;;;;5053301;28;20050;-79
2023/03/10 12:28:12;;;;;;;1.80;1.60;;;5.20;99.90;;;;;;5052570;28;20049;-78
2023/03/10 12:31:28;;;;;;;1.77;1.45;;;5.20;99.90;;;;;;5053067;28;20466;-75
2023/03/10 12:34:17;;;;;;;2.35;1.95;;;5.40;99.90;;;;;;5008991;28;20436;-75
2023/03/10 12:36:45;;;;;;;4.00;2.60;;;5.40;99.90;;;;;;5035020;28;20028;-77
2023/03/10 12:39:26;;;;;;;2.10;1.73;;;5.20;99.90;;;;;;5053521;28;20029;-79
2023/03/10 12:42:03;;;;;;;1.83;1.60;;;5.20;99.90;;;;;;5054048;28;20036;-78
2023/03/10 12:45:03;;;;;;;1.65;1.27;;;5.20;99.90;;;;;;5054482;28;20025;-80
2023/03/10 12:47:54;;;;;;;1.75;1.52;;;5.30;99.90;;;;;;5052705;28;20037;-77
2023/03/10 12:50:39;;;;;;;1.48;1.25;;;5.40;99.90;;;;;;5050550;28;20032;-77
2023/03/10 12:53:27;;;;;;;2.28;1.70;;;5.20;99.90;;;;;;5033566;28;20538;-77
2023/03/10 12:56:11;;;;;;;1.58;1.45;;;5.20;99.90;;;;;;5052541;28;20165;-77
2023/03/10 12:58:57;;;;;;;1.55;1.45;;;5.20;99.90;;;;;;5033584;28;20033;-78
2023/03/10 13:01:29;;;;;;;2.42;1.58;;;5.20;99.90;;;;;;5051423;28;20116;-79
2023/03/10 13:03:55;;;;;;;1.92;1.73;;;5.20;99.90;;;;;;5052384;28;20052;-80
2023/03/10 13:06:40;;;;;;;4.50;2.03;;;5.30;99.90;;;;;;5052521;28;20040;-78
2023/03/10 13:09:26;;;;;;;3.17;2.00;;;5.20;99.90;;;;;;5051879;28;20028;-77
2023/03/10 13:12:16;;;;;;;2.33;1.98;;;5.20;99.90;;;;;;5051827;28;20469;-78
2023/03/10 13:14:42;;;;;;;3.13;2.83;;;5.20;99.90;;;;;;5035014;28;20031;-78
2023/03/10 13:17:37;;;;;;;3.33;2.80;;;5.20;99.90;;;;;;5034925;28;20029;-77
2023/03/10 13:20:17;;;;;;;3.70;3.28;;;5.20;99.90;;;;;;5004756;28;20371;-77
2023/03/10 13:22:56;;;;;;;3.28;2.45;;;5.10;99.90;;;;;;5017853;28;20393;-77
2023/03/10 13:25:22;;;;;;;5.30;3.45;;;5.10;99.90;;;;;;5032439;28;20059;-77
2023/03/10 13:27:48;;;;;;;4.63;3.60;;;5.10;99.90;;;;;;5051039;28;20128;-76
2023/03/10 13:30:18;;;;;;;4.93;3.60;;;5.00;99.90;;;;;;5051914;28;20509;-79
2023/03/10 13:32:58;;;;;;;4.75;3.30;;;5.10;99.90;;;;;;5031366;28;21393;-77
2023/03/10 13:35:32;;;;;;;5.13;3.83;;;5.00;99.90;;;;;;5051173;28;20040;-78
2023/03/10 13:38:06;;;;;;;4.15;3.25;;;4.90;99.90;;;;;;5049726;28;20102;-76
2023/03/10 13:40:32;;;;;;;3.72;2.72;;;4.80;99.90;;;;;;5050845;28;20457;-76